sensor_id;sensor_type;location;lat;lon;timestamp;pressure;altitude;pressure_sealevel;temperature;humidity
13732;BME280;6937;56.096;12.664;2024-01-30T00:00:29;102785.72;;;5.07;100.00
13732;BME280;6937;56.096;12.664;2024-01-30T00:02:54;102788.44;;;5.06;100.00
13732;BME280;6937;56.096;12.664;2024-01-30T00:05:23;102788.44;;;5.03;100.00
13732;BME280;6937;56.096;12.664;2024-01-30T00:07:48;102785.78;;;5.06;100.00
13732;BME280;6937;56.096;12.664;2024-01-30T00:10:13;102783.91;;;5.11;100.00
13732;BME280;6937;56.096;12.664;2024-01-30T00:12:39;102781.19;;;5.14;100.00
13732;BME280;6937;56.096;12.664;2024-01-30T00:15:04;102776.63;;;5.22;100.00
13732;BME280;6937;56.096;12.664;2024-01-30T00:17:30;102788.03;;;5.27;100.00
13732;BME280;6937;56.096;12.664;2024-01-30T00:19:56;102785.53;;;5.18;100.00
13732;BME280;6937;56.096;12.664;2024-01-30T00:22:21;102785.66;;;5.10;100.00
13732;BME280;6937;56.096;12.664;2024-01-30T00:24:46;102788.50;;;5.01;100.00
13732;BME280;6937;56.096;12.664;2024-01-30T00:27:12;102787.72;;;4.95;100.00
13732;BME280;6937;56.096;12.664;2024-01-30T00:29:37;102784.28;;;4.88;100.00
13732;BME280;6937;56.096;12.664;2024-01-30T00:32:02;102783.47;;;4.84;100.00
13732;BME280;6937;56.096;12.664;2024-01-30T00:34:28;102782.59;;;4.84;100.00
13732;BME280;6937;56.096;12.664;2024-01-30T00:36:53;102787.88;;;4.85;100.00
13732;BME280;6937;56.096;12.664;2024-01-30T00:39:18;102780.72;;;4.91;100.00
13732;BME280;6937;56.096;12.664;2024-01-30T00:41:45;102777.22;;;4.88;100.00
13732;BME280;6937;56.096;12.664;2024-01-30T00:44:10;102776.31;;;4.90;100.00
13732;BME280;6937;56.096;12.664;2024-01-30T00:46:36;102783.41;;;4.87;100.00
13732;BME280;6937;56.096;12.664;2024-01-30T00:49:01;102787.03;;;4.82;100.00
13732;BME280;6937;56.096;12.664;2024-01-30T00:51:26;102795.06;;;4.77;100.00
13732;BME280;6937;56.096;12.664;2024-01-30T00:53:54;102782.88;;;4.67;100.00
13732;BME280;6937;56.096;12.664;2024-01-30T00:56:20;102783.72;;;4.69;100.00
13732;BME280;6937;56.096;12.664;2024-01-30T00:58:45;102782.81;;;4.72;100.00
13732;BME280;6937;56.096;12.664;2024-01-30T01:01:11;102784.50;;;4.76;100.00
13732;BME280;6937;56.096;12.664;2024-01-30T01:03:36;102773.03;;;4.74;100.00
13732;BME280;6937;56.096;12.664;2024-01-30T01:06:02;102783.63;;;4.74;100.00
13732;BME280;6937;56.096;12.664;2024-01-30T01:08:27;102783.66;;;4.72;100.00
13732;BME280;6937;56.096;12.664;2024-01-30T01:10:52;102786.28;;;4.75;100.00
13732;BME280;6937;56.096;12.664;2024-01-30T01:13:18;102787.16;;;4.76;100.00
13732;BME280;6937;56.096;12.664;2024-01-30T01:15:43;102792.41;;;4.77;100.00
13732;BME280;6937;56.096;12.664;2024-01-30T01:18:08;102794.19;;;4.77;100.00
13732;BME280;6937;56.096;12.664;2024-01-30T01:20:34;102796.03;;;4.72;100.00
13732;BME280;6937;56.096;12.664;2024-01-30T01:22:59;102795.19;;;4.70;100.00
13732;BME280;6937;56.096;12.664;2024-01-30T01:25:24;102796.03;;;4.72;100.00
13732;BME280;6937;56.096;12.664;2024-01-30T01:27:50;102804.06;;;4.67;100.00
13732;BME280;6937;56.096;12.664;2024-01-30T01:30:18;102804.06;;;4.66;100.00
13732;BME280;6937;56.096;12.664;2024-01-30T01:32:54;102805.81;;;4.67;100.00
13732;BME280;6937;56.096;12.664;2024-01-30T01:35:25;102807.59;;;4.68;100.00
13732;BME280;6937;56.096;12.664;2024-01-30T01:37:52;102803.06;;;4.76;100.00
13732;BME280;6937;56.096;12.664;2024-01-30T01:40:23;102805.69;;;4.76;100.00
13732;BME280;6937;56.096;12.664;2024-01-30T01:42:52;102814.50;;;4.76;100.00
13732;BME280;6937;56.096;12.664;2024-01-30T01:45:19;102799.47;;;4.77;100.00
13732;BME280;6937;56.096;12.664;2024-01-30T01:47:47;102807.44;;;4.77;100.00
13732;BME280;6937;56.096;12.664;2024-01-30T01:50:14;102804.84;;;4.74;100.00
13732;BME280;6937;56.096;12.664;2024-01-30T01:52:44;102823.31;;;4.77;100.00
13732;BME280;6937;56.096;12.664;2024-01-30T01:55:11;102810.91;;;4.80;100.00
13732;BME280;6937;56.096;12.664;2024-01-30T01:57:37;102820.59;;;4.83;100.00
13732;BME280;6937;56.096;12.664;2024-01-30T02:00:03;102816.06;;;4.88;100.00
13732;BME280;6937;56.096;12.664;2024-01-30T02:02:30;102800.16;;;4.90;100.00
13732;BME280;6937;56.096;12.664;2024-01-30T02:04:57;102800.13;;;4.93;100.00
13732;BME280;6937;56.096;12.664;2024-01-30T02:07:24;102803.72;;;4.88;100.00
13732;BME280;6937;56.096;12.664;2024-01-30T02:09:49;102810.78;;;4.88;100.00
13732;BME280;6937;56.096;12.664;2024-01-30T02:12:14;102802.81;;;4.91;100.00
13732;BME280;6937;56.096;12.664;2024-01-30T02:14:47;102804.47;;;4.95;100.00
13732;BME280;6937;56.096;12.664;2024-01-30T02:17:13;102808.88;;;4.96;100.00
13732;BME280;6937;56.096;12.664;2024-01-30T02:19:39;102819.47;;;4.96;100.00
13732;BME280;6937;56.096;12.664;2024-01-30T02:22:05;102820.38;;;4.95;100.00
13732;BME280;6937;56.096;12.664;2024-01-30T02:24:31;102808.13;;;4.90;100.00
13732;BME280;6937;56.096;12.664;2024-01-30T02:26:56;102811.69;;;4.87;100.00
13732;BME280;6937;56.096;12.664;2024-01-30T02:29:21;102809.91;;;4.87;100.00
13732;BME280;6937;56.096;12.664;2024-01-30T02:31:47;102800.28;;;4.83;100.00
13732;BME280;6937;56.096;12.664;2024-01-30T02:34:13;102795.06;;;4.79;100.00
13732;BME280;6937;56.096;12.664;2024-01-30T02:36:38;102802.16;;;4.75;100.00
13732;BME280;6937;56.096;12.664;2024-01-30T02:39:07;102789.81;;;4.73;100.00
13732;BME280;6937;56.096;12.664;2024-01-30T02:41:32;102790.66;;;4.76;100.00
13732;BME280;6937;56.096;12.664;2024-01-30T02:43:57;102788.06;;;4.73;100.00
13732;BME280;6937;56.096;12.664;2024-01-30T02:46:23;102790.75;;;4.70;100.00
13732;BME280;6937;56.096;12.664;2024-01-30T02:48:48;102786.41;;;4.66;100.00
13732;BME280;6937;56.096;12.664;2024-01-30T02:51:13;102790.81;;;4.67;100.00
13732;BME280;6937;56.096;12.664;2024-01-30T02:53:39;102788.13;;;4.69;100.00
13732;BME280;6937;56.096;12.664;2024-01-30T02:56:04;102782.81;;;4.70;100.00
13732;BME280;6937;56.096;12.664;2024-01-30T02:58:31;102791.63;;;4.71;100.00
13732;BME280;6937;56.096;12.664;2024-01-30T03:00:56;102788.06;;;4.75;100.00
13732;BME280;6937;56.096;12.664;2024-01-30T03:03:21;102782.81;;;4.69;100.00
13732;BME280;6937;56.096;12.664;2024-01-30T03:05:47;102783.63;;;4.74;100.00
13732;BME280;6937;56.096;12.664;2024-01-30T03:08:12;102788.00;;;4.76;100.00
13732;BME280;6937;56.096;12.664;2024-01-30T03:10:37;102782.72;;;4.76;100.00
13732;BME280;6937;56.096;12.664;2024-01-30T03:13:03;102788.00;;;4.78;100.00
13732;BME280;6937;56.096;12.664;2024-01-30T03:15:28;102795.09;;;4.76;100.00
13732;BME280;6937;56.096;12.664;2024-01-30T03:17:53;102783.72;;;4.69;100.00
13732;BME280;6937;56.096;12.664;2024-01-30T03:20:19;102784.59;;;4.70;100.00
13732;BME280;6937;56.096;12.664;2024-01-30T03:22:44;102793.41;;;4.72;100.00
13732;BME280;6937;56.096;12.664;2024-01-30T03:25:10;102792.47;;;4.76;100.00
13732;BME280;6937;56.096;12.664;2024-01-30T03:27:35;102795.06;;;4.77;100.00
13732;BME280;6937;56.096;12.664;2024-01-30T03:30:01;102794.06;;;4.84;100.00
13732;BME280;6937;56.096;12.664;2024-01-30T03:32:26;102802.81;;;4.90;100.00
13732;BME280;6937;56.096;12.664;2024-01-30T03:34:53;102808.09;;;4.91;100.00
13732;BME280;6937;56.096;12.664;2024-01-30T03:37:18;102800.16;;;4.91;100.00
13732;BME280;6937;56.096;12.664;2024-01-30T03:39:43;102794.06;;;4.84;100.00
13732;BME280;6937;56.096;12.664;2024-01-30T03:42:09;102794.06;;;4.84;100.00
13732;BME280;6937;56.096;12.664;2024-01-30T03:44:34;102795.84;;;4.84;100.00
13732;BME280;6937;56.096;12.664;2024-01-30T03:46:59;102802.94;;;4.83;100.00
13732;BME280;6937;56.096;12.664;2024-01-30T03:49:25;102800.34;;;4.79;100.00
13732;BME280;6937;56.096;12.664;2024-01-30T03:51:50;102796.00;;;4.75;100.00
13732;BME280;6937;56.096;12.664;2024-01-30T03:54:15;102782.81;;;4.72;100.00
13732;BME280;6937;56.096;12.664;2024-01-30T03:56:41;102800.28;;;4.82;100.00
13732;BME280;6937;56.096;12.664;2024-01-30T03:59:06;102808.31;;;4.77;100.00
13732;BME280;6937;56.096;12.664;2024-01-30T04:01:32;102807.47;;;4.75;100.00
13732;BME280;6937;56.096;12.664;2024-01-30T04:03:57;102820.66;;;4.77;100.00
13732;BME280;6937;56.096;12.664;2024-01-30T04:06:23;102806.59;;;4.73;100.00
13732;BME280;6937;56.096;12.664;2024-01-30T04:08:49;102806.59;;;4.75;100.00
13732;BME280;6937;56.096;12.664;2024-01-30T04:11:14;102805.69;;;4.76;100.00
13732;BME280;6937;56.096;12.664;2024-01-30T04:13:39;102800.34;;;4.77;100.00
13732;BME280;6937;56.096;12.664;2024-01-30T04:16:05;102783.47;;;4.84;100.00
13732;BME280;6937;56.096;12.664;2024-01-30T04:18:31;102786.84;;;4.94;100.00
13732;BME280;6937;56.096;12.664;2024-01-30T04:20:57;102799.09;;;5.01;100.00
13732;BME280;6937;56.096;12.664;2024-01-30T04:23:22;102794.66;;;5.02;100.00
13732;BME280;6937;56.096;12.664;2024-01-30T04:25:48;102809.63;;;5.04;100.00
13732;BME280;6937;56.096;12.664;2024-01-30T04:28:13;102807.94;;;5.00;100.00
13732;BME280;6937;56.096;12.664;2024-01-30T04:30:39;102813.22;;;5.02;100.00
13732;BME280;6937;56.096;12.664;2024-01-30T04:33:05;102789.31;;;5.03;100.00
13732;BME280;6937;56.096;12.664;2024-01-30T04:35:30;102798.91;;;5.10;100.00
13732;BME280;6937;56.096;12.664;2024-01-30T04:37:55;102798.78;;;5.18;100.00
13732;BME280;6937;56.096;12.664;2024-01-30T04:40:21;102791.84;;;5.12;100.00
13732;BME280;6937;56.096;12.664;2024-01-30T04:42:47;102805.09;;;5.11;100.00
13732;BME280;6937;56.096;12.664;2024-01-30T04:45:12;102814.03;;;5.05;100.00
13732;BME280;6937;56.096;12.664;2024-01-30T04:47:37;102805.41;;;4.94;100.00
13732;BME280;6937;56.096;12.664;2024-01-30T04:50:05;102806.34;;;4.90;100.00
13732;BME280;6937;56.096;12.664;2024-01-30T04:52:31;102811.66;;;4.88;100.00
13732;BME280;6937;56.096;12.664;2024-01-30T04:54:56;102814.34;;;4.87;100.00
13732;BME280;6937;56.096;12.664;2024-01-30T04:57:22;102813.47;;;4.85;100.00
13732;BME280;6937;56.096;12.664;2024-01-30T04:59:47;102807.34;;;4.81;100.00
13732;BME280;6937;56.096;12.664;2024-01-30T05:02:12;102807.47;;;4.74;100.00
13732;BME280;6937;56.096;12.664;2024-01-30T05:04:38;102812.78;;;4.75;100.00
13732;BME280;6937;56.096;12.664;2024-01-30T05:07:03;102803.06;;;4.73;100.00
13732;BME280;6937;56.096;12.664;2024-01-30T05:09:29;102817.16;;;4.76;100.00
13732;BME280;6937;56.096;12.664;2024-01-30T05:11:54;102814.53;;;4.73;100.00
13732;BME280;6937;56.096;12.664;2024-01-30T05:14:20;102814.59;;;4.72;100.00
13732;BME280;6937;56.096;12.664;2024-01-30T05:16:45;102818.13;;;4.71;100.00
13732;BME280;6937;56.096;12.664;2024-01-30T05:19:13;102804.84;;;4.72;100.00
13732;BME280;6937;56.096;12.664;2024-01-30T05:21:39;102807.53;;;4.69;100.00
13732;BME280;6937;56.096;12.664;2024-01-30T05:24:05;102817.25;;;4.69;100.00
13732;BME280;6937;56.096;12.664;2024-01-30T05:26:30;102815.53;;;4.66;100.00
13732;BME280;6937;56.096;12.664;2024-01-30T05:28:56;102817.34;;;4.64;100.00
13732;BME280;6937;56.096;12.664;2024-01-30T05:31:22;102834.13;;;4.63;100.00
13732;BME280;6937;56.096;12.664;2024-01-30T05:33:47;102828.00;;;4.60;100.00
13732;BME280;6937;56.096;12.664;2024-01-30T05:36:13;102824.44;;;4.62;100.00
13732;BME280;6937;56.096;12.664;2024-01-30T05:38:38;102828.84;;;4.62;100.00
13732;BME280;6937;56.096;12.664;2024-01-30T05:41:04;102829.72;;;4.62;100.00
13732;BME280;6937;56.096;12.664;2024-01-30T05:43:29;102830.56;;;4.66;100.00
13732;BME280;6937;56.096;12.664;2024-01-30T05:45:54;102826.09;;;4.69;100.00
13732;BME280;6937;56.096;12.664;2024-01-30T05:48:20;102827.00;;;4.68;100.00
13732;BME280;6937;56.096;12.664;2024-01-30T05:50:46;102822.56;;;4.69;100.00
13732;BME280;6937;56.096;12.664;2024-01-30T05:53:11;102822.53;;;4.72;100.00
13732;BME280;6937;56.096;12.664;2024-01-30T05:55:37;102826.84;;;4.79;100.00
13732;BME280;6937;56.096;12.664;2024-01-30T05:58:02;102824.06;;;4.86;100.00
13732;BME280;6937;56.096;12.664;2024-01-30T06:00:29;102819.53;;;4.93;100.00
13732;BME280;6937;56.096;12.664;2024-01-30T06:02:54;102830.91;;;5.01;100.00
13732;BME280;6937;56.096;12.664;2024-01-30T06:05:20;102829.00;;;5.08;100.00
13732;BME280;6937;56.096;12.664;2024-01-30T06:07:47;102819.28;;;5.08;100.00
13732;BME280;6937;56.096;12.664;2024-01-30T06:10:12;102821.94;;;5.07;100.00
13732;BME280;6937;56.096;12.664;2024-01-30T06:12:38;102833.34;;;5.13;100.00
13732;BME280;6937;56.096;12.664;2024-01-30T06:15:04;102832.47;;;5.13;100.00
13732;BME280;6937;56.096;12.664;2024-01-30T06:17:29;102828.94;;;5.12;100.00
13732;BME280;6937;56.096;12.664;2024-01-30T06:19:55;102835.06;;;5.17;100.00
13732;BME280;6937;56.096;12.664;2024-01-30T06:22:20;102839.44;;;5.18;100.00
13732;BME280;6937;56.096;12.664;2024-01-30T06:24:45;102830.69;;;5.13;100.00
13732;BME280;6937;56.096;12.664;2024-01-30T06:27:13;102835.00;;;5.19;100.00
13732;BME280;6937;56.096;12.664;2024-01-30T06:29:38;102839.41;;;5.20;100.00
13732;BME280;6937;56.096;12.664;2024-01-30T06:32:04;102843.03;;;5.14;100.00
13732;BME280;6937;56.096;12.664;2024-01-30T06:34:29;102840.47;;;5.10;100.00
13732;BME280;6937;56.096;12.664;2024-01-30T06:36:55;102848.38;;;5.13;100.00
13732;BME280;6937;56.096;12.664;2024-01-30T06:39:20;102847.50;;;5.11;100.00
13732;BME280;6937;56.096;12.664;2024-01-30T06:41:46;102846.72;;;5.06;100.00
13732;BME280;6937;56.096;12.664;2024-01-30T06:44:12;102846.75;;;5.03;100.00
13732;BME280;6937;56.096;12.664;2024-01-30T06:46:38;102822.13;;;4.98;100.00
13732;BME280;6937;56.096;12.664;2024-01-30T06:49:03;102820.47;;;4.91;100.00
13732;BME280;6937;56.096;12.664;2024-01-30T06:51:29;102821.31;;;4.93;100.00
13732;BME280;6937;56.096;12.664;2024-01-30T06:53:54;102846.97;;;4.89;100.00
13732;BME280;6937;56.096;12.664;2024-01-30T06:56:20;102826.78;;;4.83;100.00
13732;BME280;6937;56.096;12.664;2024-01-30T06:58:49;102832.09;;;4.82;100.00
13732;BME280;6937;56.096;12.664;2024-01-30T07:01:15;102840.03;;;4.82;100.00
13732;BME280;6937;56.096;12.664;2024-01-30T07:03:41;102843.50;;;4.84;100.00
13732;BME280;6937;56.096;12.664;2024-01-30T07:06:07;102842.56;;;4.88;100.00
13732;BME280;6937;56.096;12.664;2024-01-30T07:08:32;102846.09;;;4.90;100.00
13732;BME280;6937;56.096;12.664;2024-01-30T07:10:57;102840.78;;;4.90;100.00
13732;BME280;6937;56.096;12.664;2024-01-30T07:13:23;102833.72;;;4.91;100.00
13732;BME280;6937;56.096;12.664;2024-01-30T07:15:48;102824.78;;;4.96;100.00
13732;BME280;6937;56.096;12.664;2024-01-30T07:18:13;102823.91;;;4.97;100.00
13732;BME280;6937;56.096;12.664;2024-01-30T07:20:39;102825.59;;;5.01;100.00
13732;BME280;6937;56.096;12.664;2024-01-30T07:23:12;102818.47;;;5.03;100.00
13732;BME280;6937;56.096;12.664;2024-01-30T07:25:42;102818.41;;;5.08;100.00
13732;BME280;6937;56.096;12.664;2024-01-30T07:28:08;102812.09;;;5.15;100.00
13732;BME280;6937;56.096;12.664;2024-01-30T07:30:37;102813.00;;;5.14;100.00
13732;BME280;6937;56.096;12.664;2024-01-30T07:33:03;102801.56;;;5.10;100.00
13732;BME280;6937;56.096;12.664;2024-01-30T07:35:28;102802.44;;;5.12;100.00
13732;BME280;6937;56.096;12.664;2024-01-30T07:37:53;102803.19;;;5.19;100.00
13732;BME280;6937;56.096;12.664;2024-01-30T07:40:19;102809.31;;;5.22;100.00
13732;BME280;6937;56.096;12.664;2024-01-30T07:42:44;102824.28;;;5.25;100.00
13732;BME280;6937;56.096;12.664;2024-01-30T07:45:10;102809.31;;;5.22;100.00
13732;BME280;6937;56.096;12.664;2024-01-30T07:47:35;102820.69;;;5.29;100.00
13732;BME280;6937;56.096;12.664;2024-01-30T07:50:00;102825.16;;;5.27;100.00
13732;BME280;6937;56.096;12.664;2024-01-30T07:52:26;102832.22;;;5.28;100.00
13732;BME280;6937;56.096;12.664;2024-01-30T07:54:51;102833.91;;;5.32;100.00
13732;BME280;6937;56.096;12.664;2024-01-30T07:57:17;102838.34;;;5.31;100.00
13732;BME280;6937;56.096;12.664;2024-01-30T07:59:43;102845.38;;;5.32;100.00
13732;BME280;6937;56.096;12.664;2024-01-30T08:02:12;102839.03;;;5.43;100.00
13732;BME280;6937;56.096;12.664;2024-01-30T08:04:38;102841.59;;;5.46;100.00
13732;BME280;6937;56.096;12.664;2024-01-30T08:07:04;102833.66;;;5.44;100.00
13732;BME280;6937;56.096;12.664;2024-01-30T08:09:29;102827.41;;;5.50;100.00
13732;BME280;6937;56.096;12.664;2024-01-30T08:11:55;102829.16;;;5.51;100.00
13732;BME280;6937;56.096;12.664;2024-01-30T08:14:20;102823.88;;;5.49;100.00
13732;BME280;6937;56.096;12.664;2024-01-30T08:16:45;102823.03;;;5.47;100.00
13732;BME280;6937;56.096;12.664;2024-01-30T08:19:11;102817.69;;;5.49;100.00
13732;BME280;6937;56.096;12.664;2024-01-30T08:21:36;102807.13;;;5.46;100.00
13732;BME280;6937;56.096;12.664;2024-01-30T08:24:05;102803.53;;;5.50;100.00
13732;BME280;6937;56.096;12.664;2024-01-30T08:26:34;102807.88;;;5.52;100.00
13732;BME280;6937;56.096;12.664;2024-01-30T08:29:00;102809.66;;;5.53;100.00
13732;BME280;6937;56.096;12.664;2024-01-30T08:31:26;102813.94;;;5.60;100.00
13732;BME280;6937;56.096;12.664;2024-01-30T08:33:51;102809.50;;;5.61;100.00
13732;BME280;6937;56.096;12.664;2024-01-30T08:36:17;102803.34;;;5.59;100.00
13732;BME280;6937;56.096;12.664;2024-01-30T08:38:42;102803.34;;;5.59;100.00
13732;BME280;6937;56.096;12.664;2024-01-30T08:41:08;102804.19;;;5.61;100.00
13732;BME280;6937;56.096;12.664;2024-01-30T08:43:33;102812.16;;;5.61;100.00
13732;BME280;6937;56.096;12.664;2024-01-30T08:45:59;102801.53;;;5.61;100.00
13732;BME280;6937;56.096;12.664;2024-01-30T08:48:25;102803.31;;;5.62;100.00
13732;BME280;6937;56.096;12.664;2024-01-30T08:50:51;102798.00;;;5.60;100.00
13732;BME280;6937;56.096;12.664;2024-01-30T08:53:16;102808.59;;;5.62;100.00
13732;BME280;6937;56.096;12.664;2024-01-30T08:55:42;102798.94;;;5.58;100.00
13732;BME280;6937;56.096;12.664;2024-01-30T08:58:07;102805.97;;;5.59;100.00
13732;BME280;6937;56.096;12.664;2024-01-30T09:00:33;102801.59;;;5.58;100.00
13732;BME280;6937;56.096;12.664;2024-01-30T09:02:58;102801.59;;;5.58;100.00
13732;BME280;6937;56.096;12.664;2024-01-30T09:05:24;102795.34;;;5.60;100.00
13732;BME280;6937;56.096;12.664;2024-01-30T09:07:49;102782.97;;;5.61;100.00
13732;BME280;6937;56.096;12.664;2024-01-30T09:10:15;102786.31;;;5.70;100.00
13732;BME280;6937;56.096;12.664;2024-01-30T09:12:40;102790.63;;;5.76;100.00
13732;BME280;6937;56.096;12.664;2024-01-30T09:15:06;102790.66;;;5.74;100.00
13732;BME280;6937;56.096;12.664;2024-01-30T09:17:32;102790.66;;;5.74;100.00
13732;BME280;6937;56.096;12.664;2024-01-30T09:19:58;102785.31;;;5.76;100.00
13732;BME280;6937;56.096;12.664;2024-01-30T09:22:23;102790.59;;;5.77;100.00
13732;BME280;6937;56.096;12.664;2024-01-30T09:24:49;102796.72;;;5.81;100.00
13732;BME280;6937;56.096;12.664;2024-01-30T09:27:14;102795.81;;;5.82;100.00
13732;BME280;6937;56.096;12.664;2024-01-30T09:29:40;102788.72;;;5.82;100.00
13732;BME280;6937;56.096;12.664;2024-01-30T09:32:05;102788.72;;;5.82;100.00
13732;BME280;6937;56.096;12.664;2024-01-30T09:34:31;102795.75;;;5.87;100.00
13732;BME280;6937;56.096;12.664;2024-01-30T09:36:57;102794.88;;;5.86;100.00
13732;BME280;6937;56.096;12.664;2024-01-30T09:39:22;102802.75;;;5.89;100.00
13732;BME280;6937;56.096;12.664;2024-01-30T09:44:50;102791.13;;;5.96;100.00
13732;BME280;6937;56.096;12.664;2024-01-30T09:47:17;102792.00;;;5.97;100.00
13732;BME280;6937;56.096;12.664;2024-01-30T09:49:43;102794.47;;;6.04;100.00
13732;BME280;6937;56.096;12.664;2024-01-30T09:52:09;102792.63;;;6.09;100.00
13732;BME280;6937;56.096;12.664;2024-01-30T09:54:35;102796.97;;;6.13;100.00
13732;BME280;6937;56.096;12.664;2024-01-30T09:57:01;102801.22;;;6.20;100.00
13732;BME280;6937;56.096;12.664;2024-01-30T09:59:26;102802.91;;;6.24;100.00
13732;BME280;6937;56.096;12.664;2024-01-30T10:01:51;102783.38;;;6.27;100.00
13732;BME280;6937;56.096;12.664;2024-01-30T10:04:17;102801.03;;;6.29;100.00
13732;BME280;6937;56.096;12.664;2024-01-30T10:06:42;102790.28;;;6.34;100.00
13732;BME280;6937;56.096;12.664;2024-01-30T10:09:08;102791.88;;;6.41;100.00
13732;BME280;6937;56.096;12.664;2024-01-30T10:11:36;102794.53;;;6.43;100.00
13732;BME280;6937;56.096;12.664;2024-01-30T10:14:02;102802.47;;;6.44;100.00
13732;BME280;6937;56.096;12.664;2024-01-30T10:16:27;102800.69;;;6.45;100.00
13732;BME280;6937;56.096;12.664;2024-01-30T10:18:53;102793.63;;;6.44;100.00
13732;BME280;6937;56.096;12.664;2024-01-30T10:21:18;102807.72;;;6.46;100.00
13732;BME280;6937;56.096;12.664;2024-01-30T10:23:44;102810.38;;;6.46;100.00
13732;BME280;6937;56.096;12.664;2024-01-30T10:26:12;102822.78;;;6.45;100.00
13732;BME280;6937;56.096;12.664;2024-01-30T10:28:37;102821.00;;;6.47;100.00
13732;BME280;6937;56.096;12.664;2024-01-30T10:31:03;102816.66;;;6.43;100.00
13732;BME280;6937;56.096;12.664;2024-01-30T10:33:29;102821.06;;;6.44;100.00
13732;BME280;6937;56.096;12.664;2024-01-30T10:36:02;102822.84;;;6.44;100.00
13732;BME280;6937;56.096;12.664;2024-01-30T10:38:32;102814.06;;;6.40;100.00
13732;BME280;6937;56.096;12.664;2024-01-30T10:40:58;102821.09;;;6.43;100.00
13732;BME280;6937;56.096;12.664;2024-01-30T10:43:40;102811.41;;;6.40;100.00
13732;BME280;6937;56.096;12.664;2024-01-30T10:46:19;102811.50;;;6.37;100.00
13732;BME280;6937;56.096;12.664;2024-01-30T10:48:51;102812.34;;;6.38;100.00
13732;BME280;6937;56.096;12.664;2024-01-30T10:51:22;102803.53;;;6.37;100.00
13732;BME280;6937;56.096;12.664;2024-01-30T10:53:49;102802.56;;;6.40;100.00
13732;BME280;6937;56.096;12.664;2024-01-30T10:56:16;102791.88;;;6.41;100.00
13732;BME280;6937;56.096;12.664;2024-01-30T10:58:41;102813.03;;;6.46;100.00
13732;BME280;6937;56.096;12.664;2024-01-30T11:01:07;102809.41;;;6.50;100.00
13732;BME280;6937;56.096;12.664;2024-01-30T11:03:34;102801.53;;;6.47;100.00
13732;BME280;6937;56.096;12.664;2024-01-30T11:06:02;102802.34;;;6.49;100.00
13732;BME280;6937;56.096;12.664;2024-01-30T11:08:27;102806.94;;;6.42;100.00
13732;BME280;6937;56.096;12.664;2024-01-30T11:10:57;102799.94;;;6.38;100.00
13732;BME280;6937;56.096;12.664;2024-01-30T11:13:29;102784.16;;;6.32;100.00
13732;BME280;6937;56.096;12.664;2024-01-30T11:15:55;102788.59;;;6.30;100.00
13732;BME280;6937;56.096;12.664;2024-01-30T11:18:29;102788.72;;;6.25;100.00
13732;BME280;6937;56.096;12.664;2024-01-30T11:21:00;102778.13;;;6.25;100.00
13732;BME280;6937;56.096;12.664;2024-01-30T11:23:28;102783.38;;;6.27;100.00
13732;BME280;6937;56.096;12.664;2024-01-30T11:25:54;102772.81;;;6.24;100.00
13732;BME280;6937;56.096;12.664;2024-01-30T11:28:21;102779.97;;;6.20;100.00
13732;BME280;6937;56.096;12.664;2024-01-30T11:30:47;102783.53;;;6.21;100.00
13732;BME280;6937;56.096;12.664;2024-01-30T11:33:27;102795.00;;;6.21;100.00
13732;BME280;6937;56.096;12.664;2024-01-30T11:35:57;102792.38;;;6.21;100.00
13732;BME280;6937;56.096;12.664;2024-01-30T11:38:23;102801.25;;;6.19;100.00
13732;BME280;6937;56.096;12.664;2024-01-30T11:40:51;102795.19;;;6.14;100.00
13732;BME280;6937;56.096;12.664;2024-01-30T11:43:16;102804.78;;;6.19;100.00
13732;BME280;6937;56.096;12.664;2024-01-30T11:45:43;102799.53;;;6.16;100.00
13732;BME280;6937;56.096;12.664;2024-01-30T11:48:11;102789.00;;;6.13;100.00
13732;BME280;6937;56.096;12.664;2024-01-30T11:50:37;102805.72;;;6.17;100.00
13732;BME280;6937;56.096;12.664;2024-01-30T11:53:04;102806.63;;;6.16;100.00
13732;BME280;6937;56.096;12.664;2024-01-30T11:55:30;102806.69;;;6.14;100.00
13732;BME280;6937;56.096;12.664;2024-01-30T11:57:57;102795.13;;;6.15;100.00
13732;BME280;6937;56.096;12.664;2024-01-30T12:00:23;102799.78;;;6.06;100.00
13732;BME280;6937;56.096;12.664;2024-01-30T12:02:52;102792.69;;;6.06;100.00
13732;BME280;6937;56.096;12.664;2024-01-30T12:05:21;102782.97;;;6.05;100.00
13732;BME280;6937;56.096;12.664;2024-01-30T12:07:47;102782.91;;;6.08;100.00
13732;BME280;6937;56.096;12.664;2024-01-30T12:10:13;102788.25;;;6.07;100.00
13732;BME280;6937;56.096;12.664;2024-01-30T12:12:41;102782.91;;;6.08;100.00
13732;BME280;6937;56.096;12.664;2024-01-30T12:15:07;102788.38;;;6.01;100.00
13732;BME280;6937;56.096;12.664;2024-01-30T12:17:33;102792.00;;;5.97;100.00
13732;BME280;6937;56.096;12.664;2024-01-30T12:20:06;102790.19;;;5.99;100.00
13732;BME280;6937;56.096;12.664;2024-01-30T12:22:43;102789.34;;;5.97;100.00
13732;BME280;6937;56.096;12.664;2024-01-30T12:25:13;102796.34;;;6.01;100.00
13732;BME280;6937;56.096;12.664;2024-01-30T12:27:41;102806.94;;;6.01;100.00
13732;BME280;6937;56.096;12.664;2024-01-30T12:30:09;102806.13;;;5.97;100.00
13732;BME280;6937;56.096;12.664;2024-01-30T12:32:36;102816.81;;;5.96;100.00
13732;BME280;6937;56.096;12.664;2024-01-30T12:35:01;102816.00;;;5.91;100.00
13732;BME280;6937;56.096;12.664;2024-01-30T12:37:27;102828.31;;;5.95;100.00
13732;BME280;6937;56.096;12.664;2024-01-30T12:39:52;102828.47;;;5.87;100.00
13732;BME280;6937;56.096;12.664;2024-01-30T12:42:21;102824.03;;;5.88;100.00
13732;BME280;6937;56.096;12.664;2024-01-30T12:44:49;102814.25;;;5.91;100.00
13732;BME280;6937;56.096;12.664;2024-01-30T12:47:15;102822.13;;;5.94;100.00